Wacissa, Florida
Current Conditions -  °F | °C
As of 6:53 PM on Saturday 20 Dec 2014 (Local Time) from KTLH Reporting Station
Overcast Overcast  
Wind Chill: 59°   Ceiling: 6000
Heat Index: 59°   Visibility: 10mi
Dew Point: 50°   Wind: 6mph
Humidity: 72%   Direction: 20°NNE
Pressure: 30.1"   Gusts: NA
Location:  30.36°N, 83.99°W
Report Text: KTLH 202353Z 02005KT 10SM BKN060 OVC095 15/10 A3010 RMK AO2 SLP193 T01500100 10167 20133 53009 $
Loading
Personal Weather Stations






























Interactive Weather Map New forecast layout! Learn more

10-Day Weather Forecast

Advertisements
Track Severe Weather on mobile